sensor_id;sensor_type;location;lat;lon;timestamp;temperature;humidity
38514;DHT22;24282;48.400;10.808;2023-03-14T00:01:52;10.40;83.00
38514;DHT22;24282;48.400;10.808;2023-03-14T00:04:18;10.40;83.10
38514;DHT22;24282;48.400;10.808;2023-03-14T00:06:44;10.50;82.90
38514;DHT22;24282;48.400;10.808;2023-03-14T00:09:09;10.40;83.10
38514;DHT22;24282;48.400;10.808;2023-03-14T00:11:35;10.50;83.00
38514;DHT22;24282;48.400;10.808;2023-03-14T00:14:01;10.50;83.40
38514;DHT22;24282;48.400;10.808;2023-03-14T00:16:28;10.50;83.60
38514;DHT22;24282;48.400;10.808;2023-03-14T00:18:54;10.50;83.50
38514;DHT22;24282;48.400;10.808;2023-03-14T00:21:19;10.50;83.50
38514;DHT22;24282;48.400;10.808;2023-03-14T00:23:45;10.40;83.90
38514;DHT22;24282;48.400;10.808;2023-03-14T00:26:13;10.50;83.60
38514;DHT22;24282;48.400;10.808;2023-03-14T00:28:39;10.50;83.70
38514;DHT22;24282;48.400;10.808;2023-03-14T00:31:07;10.40;83.80
38514;DHT22;24282;48.400;10.808;2023-03-14T00:33:33;10.40;84.00
38514;DHT22;24282;48.400;10.808;2023-03-14T00:36:05;10.40;84.10
38514;DHT22;24282;48.400;10.808;2023-03-14T00:38:34;10.40;84.00
38514;DHT22;24282;48.400;10.808;2023-03-14T00:41:03;10.50;83.40
38514;DHT22;24282;48.400;10.808;2023-03-14T00:43:29;10.50;82.60
38514;DHT22;24282;48.400;10.808;2023-03-14T00:45:55;10.40;83.00
38514;DHT22;24282;48.400;10.808;2023-03-14T00:48:25;10.40;82.70
38514;DHT22;24282;48.400;10.808;2023-03-14T00:50:51;10.40;82.60
38514;DHT22;24282;48.400;10.808;2023-03-14T00:53:17;10.40;82.50
38514;DHT22;24282;48.400;10.808;2023-03-14T00:55:44;10.40;82.70
38514;DHT22;24282;48.400;10.808;2023-03-14T00:58:12;10.30;82.70
38514;DHT22;24282;48.400;10.808;2023-03-14T01:00:38;10.20;83.30
38514;DHT22;24282;48.400;10.808;2023-03-14T01:03:03;10.20;83.40
38514;DHT22;24282;48.400;10.808;2023-03-14T01:05:30;10.20;83.50
38514;DHT22;24282;48.400;10.808;2023-03-14T01:07:55;10.20;83.50
38514;DHT22;24282;48.400;10.808;2023-03-14T01:10:21;10.30;83.40
38514;DHT22;24282;48.400;10.808;2023-03-14T01:12:48;10.20;83.20
38514;DHT22;24282;48.400;10.808;2023-03-14T01:15:14;10.20;83.10
38514;DHT22;24282;48.400;10.808;2023-03-14T01:17:40;10.10;83.20
38514;DHT22;24282;48.400;10.808;2023-03-14T01:20:07;10.20;83.70
38514;DHT22;24282;48.400;10.808;2023-03-14T01:22:37;10.10;83.50
38514;DHT22;24282;48.400;10.808;2023-03-14T01:25:10;10.10;83.90
38514;DHT22;24282;48.400;10.808;2023-03-14T01:27:37;10.00;84.40
38514;DHT22;24282;48.400;10.808;2023-03-14T01:30:03;10.00;84.00
38514;DHT22;24282;48.400;10.808;2023-03-14T01:32:31;10.00;83.80
38514;DHT22;24282;48.400;10.808;2023-03-14T01:34:56;9.90;84.00
38514;DHT22;24282;48.400;10.808;2023-03-14T01:37:23;9.90;83.80
38514;DHT22;24282;48.400;10.808;2023-03-14T01:39:49;9.90;84.20
38514;DHT22;24282;48.400;10.808;2023-03-14T01:42:15;9.80;84.60
38514;DHT22;24282;48.400;10.808;2023-03-14T01:44:56;9.80;84.70
38514;DHT22;24282;48.400;10.808;2023-03-14T01:47:23;9.70;85.00
38514;DHT22;24282;48.400;10.808;2023-03-14T01:50:03;9.70;85.10
38514;DHT22;24282;48.400;10.808;2023-03-14T01:52:43;9.70;85.30
38514;DHT22;24282;48.400;10.808;2023-03-14T01:55:14;9.70;85.30
38514;DHT22;24282;48.400;10.808;2023-03-14T01:57:47;9.70;85.30
38514;DHT22;24282;48.400;10.808;2023-03-14T02:00:18;9.60;85.40
38514;DHT22;24282;48.400;10.808;2023-03-14T02:02:56;9.70;85.20
38514;DHT22;24282;48.400;10.808;2023-03-14T02:05:31;9.60;85.20
38514;DHT22;24282;48.400;10.808;2023-03-14T02:08:07;9.60;85.40
38514;DHT22;24282;48.400;10.808;2023-03-14T02:10:45;9.70;85.30
38514;DHT22;24282;48.400;10.808;2023-03-14T02:13:11;9.60;85.20
38514;DHT22;24282;48.400;10.808;2023-03-14T02:16:04;9.60;85.20
38514;DHT22;24282;48.400;10.808;2023-03-14T02:18:57;9.60;85.30
38514;DHT22;24282;48.400;10.808;2023-03-14T02:21:56;9.60;85.50
38514;DHT22;24282;48.400;10.808;2023-03-14T02:24:39;9.60;85.50
38514;DHT22;24282;48.400;10.808;2023-03-14T02:27:17;9.50;85.60
38514;DHT22;24282;48.400;10.808;2023-03-14T02:29:54;9.60;85.70
38514;DHT22;24282;48.400;10.808;2023-03-14T02:32:22;9.60;85.70
38514;DHT22;24282;48.400;10.808;2023-03-14T02:35:00;9.60;85.50
38514;DHT22;24282;48.400;10.808;2023-03-14T02:37:35;9.60;85.20
38514;DHT22;24282;48.400;10.808;2023-03-14T02:40:03;9.70;84.90
38514;DHT22;24282;48.400;10.808;2023-03-14T02:42:31;9.60;85.00
38514;DHT22;24282;48.400;10.808;2023-03-14T02:47:53;9.60;85.10
38514;DHT22;24282;48.400;10.808;2023-03-14T02:50:26;9.60;84.60
38514;DHT22;24282;48.400;10.808;2023-03-14T02:52:53;9.70;84.50
38514;DHT22;24282;48.400;10.808;2023-03-14T02:55:23;9.60;84.60
38514;DHT22;24282;48.400;10.808;2023-03-14T02:57:52;9.50;84.70
38514;DHT22;24282;48.400;10.808;2023-03-14T03:00:19;9.50;84.70
38514;DHT22;24282;48.400;10.808;2023-03-14T03:02:45;9.50;84.70
38514;DHT22;24282;48.400;10.808;2023-03-14T03:05:13;9.50;84.20
38514;DHT22;24282;48.400;10.808;2023-03-14T03:07:39;9.60;84.30
38514;DHT22;24282;48.400;10.808;2023-03-14T03:10:05;9.60;84.20
38514;DHT22;24282;48.400;10.808;2023-03-14T03:12:31;9.50;84.40
38514;DHT22;24282;48.400;10.808;2023-03-14T03:14:57;9.50;84.10
38514;DHT22;24282;48.400;10.808;2023-03-14T03:17:23;9.50;83.60
38514;DHT22;24282;48.400;10.808;2023-03-14T03:19:48;9.50;83.80
38514;DHT22;24282;48.400;10.808;2023-03-14T03:22:14;9.50;83.80
38514;DHT22;24282;48.400;10.808;2023-03-14T03:24:40;9.50;83.60
38514;DHT22;24282;48.400;10.808;2023-03-14T03:27:06;9.50;83.30
38514;DHT22;24282;48.400;10.808;2023-03-14T03:29:31;9.50;83.40
38514;DHT22;24282;48.400;10.808;2023-03-14T03:31:57;9.50;83.10
38514;DHT22;24282;48.400;10.808;2023-03-14T03:34:23;9.50;82.60
38514;DHT22;24282;48.400;10.808;2023-03-14T03:36:51;9.50;82.10
38514;DHT22;24282;48.400;10.808;2023-03-14T03:39:17;9.50;82.30
38514;DHT22;24282;48.400;10.808;2023-03-14T03:41:46;9.50;82.40
38514;DHT22;24282;48.400;10.808;2023-03-14T03:44:12;9.50;82.10
38514;DHT22;24282;48.400;10.808;2023-03-14T03:46:39;9.50;81.60
38514;DHT22;24282;48.400;10.808;2023-03-14T03:49:04;9.50;81.90
38514;DHT22;24282;48.400;10.808;2023-03-14T03:51:30;9.50;81.40
38514;DHT22;24282;48.400;10.808;2023-03-14T03:53:57;9.40;81.40
38514;DHT22;24282;48.400;10.808;2023-03-14T03:56:32;9.40;81.40
38514;DHT22;24282;48.400;10.808;2023-03-14T03:58:59;9.50;81.20
38514;DHT22;24282;48.400;10.808;2023-03-14T04:01:25;9.40;81.20
38514;DHT22;24282;48.400;10.808;2023-03-14T04:03:53;9.40;81.50
38514;DHT22;24282;48.400;10.808;2023-03-14T04:06:19;9.40;81.00
38514;DHT22;24282;48.400;10.808;2023-03-14T04:08:47;9.40;80.80
38514;DHT22;24282;48.400;10.808;2023-03-14T04:11:48;9.40;81.10
38514;DHT22;24282;48.400;10.808;2023-03-14T04:14:20;9.40;80.90
38514;DHT22;24282;48.400;10.808;2023-03-14T04:16:48;9.30;81.10
38514;DHT22;24282;48.400;10.808;2023-03-14T04:19:18;9.40;80.80
38514;DHT22;24282;48.400;10.808;2023-03-14T04:21:45;9.30;80.70
38514;DHT22;24282;48.400;10.808;2023-03-14T04:24:13;9.30;80.50
38514;DHT22;24282;48.400;10.808;2023-03-14T04:26:40;9.30;80.80
38514;DHT22;24282;48.400;10.808;2023-03-14T04:29:08;9.20;81.10
38514;DHT22;24282;48.400;10.808;2023-03-14T04:31:34;9.30;81.10
38514;DHT22;24282;48.400;10.808;2023-03-14T04:34:00;9.20;81.00
38514;DHT22;24282;48.400;10.808;2023-03-14T04:36:33;9.20;81.20
38514;DHT22;24282;48.400;10.808;2023-03-14T04:39:03;9.20;81.10
38514;DHT22;24282;48.400;10.808;2023-03-14T04:41:30;9.20;81.00
38514;DHT22;24282;48.400;10.808;2023-03-14T04:43:57;9.10;81.30
38514;DHT22;24282;48.400;10.808;2023-03-14T04:46:22;9.20;80.90
38514;DHT22;24282;48.400;10.808;2023-03-14T04:48:48;9.20;81.00
38514;DHT22;24282;48.400;10.808;2023-03-14T04:51:16;9.20;80.50
38514;DHT22;24282;48.400;10.808;2023-03-14T04:53:42;9.20;80.40
38514;DHT22;24282;48.400;10.808;2023-03-14T04:56:10;9.20;80.50
38514;DHT22;24282;48.400;10.808;2023-03-14T04:58:39;9.10;80.30
38514;DHT22;24282;48.400;10.808;2023-03-14T05:01:06;9.20;80.20
38514;DHT22;24282;48.400;10.808;2023-03-14T05:03:52;9.10;80.20
38514;DHT22;24282;48.400;10.808;2023-03-14T05:06:30;9.20;80.10
38514;DHT22;24282;48.400;10.808;2023-03-14T05:09:05;9.10;80.00
38514;DHT22;24282;48.400;10.808;2023-03-14T05:11:49;9.20;79.80
38514;DHT22;24282;48.400;10.808;2023-03-14T05:14:29;9.10;79.60
38514;DHT22;24282;48.400;10.808;2023-03-14T05:17:27;9.10;79.60
38514;DHT22;24282;48.400;10.808;2023-03-14T05:20:05;9.20;79.30
38514;DHT22;24282;48.400;10.808;2023-03-14T05:23:06;9.10;79.30
38514;DHT22;24282;48.400;10.808;2023-03-14T05:26:01;9.10;78.90
38514;DHT22;24282;48.400;10.808;2023-03-14T05:28:40;9.20;79.10
38514;DHT22;24282;48.400;10.808;2023-03-14T05:31:20;9.10;79.40
38514;DHT22;24282;48.400;10.808;2023-03-14T05:34:06;9.00;79.40
38514;DHT22;24282;48.400;10.808;2023-03-14T05:36:55;9.00;79.30
38514;DHT22;24282;48.400;10.808;2023-03-14T05:39:38;9.00;79.30
38514;DHT22;24282;48.400;10.808;2023-03-14T05:42:30;9.00;79.60
38514;DHT22;24282;48.400;10.808;2023-03-14T05:45:11;9.00;79.30
38514;DHT22;24282;48.400;10.808;2023-03-14T05:47:48;8.90;79.40
38514;DHT22;24282;48.400;10.808;2023-03-14T05:50:26;9.00;79.10
38514;DHT22;24282;48.400;10.808;2023-03-14T05:53:06;8.90;78.90
38514;DHT22;24282;48.400;10.808;2023-03-14T05:55:53;8.90;79.30
38514;DHT22;24282;48.400;10.808;2023-03-14T05:58:40;8.90;79.40
38514;DHT22;24282;48.400;10.808;2023-03-14T06:01:24;8.90;79.20
38514;DHT22;24282;48.400;10.808;2023-03-14T06:04:10;8.90;79.30
38514;DHT22;24282;48.400;10.808;2023-03-14T06:06:35;8.90;79.10
38514;DHT22;24282;48.400;10.808;2023-03-14T06:09:01;8.90;79.10
38514;DHT22;24282;48.400;10.808;2023-03-14T06:11:28;9.00;78.50
38514;DHT22;24282;48.400;10.808;2023-03-14T06:13:55;9.00;78.40
38514;DHT22;24282;48.400;10.808;2023-03-14T06:16:20;9.00;78.60
38514;DHT22;24282;48.400;10.808;2023-03-14T06:18:46;8.90;78.60
38514;DHT22;24282;48.400;10.808;2023-03-14T06:21:15;8.90;78.80
38514;DHT22;24282;48.400;10.808;2023-03-14T06:23:41;8.90;78.60
38514;DHT22;24282;48.400;10.808;2023-03-14T06:26:06;9.00;79.00
38514;DHT22;24282;48.400;10.808;2023-03-14T06:28:32;8.90;79.20
38514;DHT22;24282;48.400;10.808;2023-03-14T06:31:00;9.00;79.00
38514;DHT22;24282;48.400;10.808;2023-03-14T06:33:30;9.00;78.70
38514;DHT22;24282;48.400;10.808;2023-03-14T06:35:56;9.00;78.60
38514;DHT22;24282;48.400;10.808;2023-03-14T06:38:22;9.00;78.40
38514;DHT22;24282;48.400;10.808;2023-03-14T06:40:53;9.10;78.30
38514;DHT22;24282;48.400;10.808;2023-03-14T06:43:29;9.10;78.00
38514;DHT22;24282;48.400;10.808;2023-03-14T06:45:54;9.10;77.80
38514;DHT22;24282;48.400;10.808;2023-03-14T06:48:20;9.10;77.90
38514;DHT22;24282;48.400;10.808;2023-03-14T06:50:51;9.10;77.80
38514;DHT22;24282;48.400;10.808;2023-03-14T06:53:17;9.10;77.80
38514;DHT22;24282;48.400;10.808;2023-03-14T06:55:43;9.10;77.20
38514;DHT22;24282;48.400;10.808;2023-03-14T06:58:11;9.10;77.50
38514;DHT22;24282;48.400;10.808;2023-03-14T07:00:41;9.10;77.70
38514;DHT22;24282;48.400;10.808;2023-03-14T07:03:09;9.10;77.50
38514;DHT22;24282;48.400;10.808;2023-03-14T07:05:41;9.10;77.70
38514;DHT22;24282;48.400;10.808;2023-03-14T07:08:10;9.20;77.80
38514;DHT22;24282;48.400;10.808;2023-03-14T07:10:35;9.20;77.70
38514;DHT22;24282;48.400;10.808;2023-03-14T07:13:01;9.20;77.60
38514;DHT22;24282;48.400;10.808;2023-03-14T07:15:31;9.20;77.60
38514;DHT22;24282;48.400;10.808;2023-03-14T07:18:01;9.10;77.80
38514;DHT22;24282;48.400;10.808;2023-03-14T07:20:28;9.20;77.80
38514;DHT22;24282;48.400;10.808;2023-03-14T07:22:55;9.20;77.70
38514;DHT22;24282;48.400;10.808;2023-03-14T07:25:33;9.20;77.70
38514;DHT22;24282;48.400;10.808;2023-03-14T07:27:59;9.20;77.40
38514;DHT22;24282;48.400;10.808;2023-03-14T07:30:25;9.20;77.30
38514;DHT22;24282;48.400;10.808;2023-03-14T07:32:52;9.20;77.10
38514;DHT22;24282;48.400;10.808;2023-03-14T07:35:20;9.20;77.00
38514;DHT22;24282;48.400;10.808;2023-03-14T07:37:46;9.30;76.90
38514;DHT22;24282;48.400;10.808;2023-03-14T07:40:13;9.30;76.80
38514;DHT22;24282;48.400;10.808;2023-03-14T07:42:42;9.30;77.10
38514;DHT22;24282;48.400;10.808;2023-03-14T07:45:17;9.30;76.90
38514;DHT22;24282;48.400;10.808;2023-03-14T07:47:43;9.40;76.60
38514;DHT22;24282;48.400;10.808;2023-03-14T07:50:09;9.40;76.40
38514;DHT22;24282;48.400;10.808;2023-03-14T07:52:35;9.40;76.20
38514;DHT22;24282;48.400;10.808;2023-03-14T07:55:01;9.40;76.30
38514;DHT22;24282;48.400;10.808;2023-03-14T07:57:26;9.40;75.70
38514;DHT22;24282;48.400;10.808;2023-03-14T07:59:52;9.40;75.40
38514;DHT22;24282;48.400;10.808;2023-03-14T08:02:18;9.40;76.00
38514;DHT22;24282;48.400;10.808;2023-03-14T08:04:47;9.50;75.20
38514;DHT22;24282;48.400;10.808;2023-03-14T08:07:13;9.50;75.40
38514;DHT22;24282;48.400;10.808;2023-03-14T08:09:39;9.50;75.50
38514;DHT22;24282;48.400;10.808;2023-03-14T08:12:05;9.50;75.60
38514;DHT22;24282;48.400;10.808;2023-03-14T08:14:31;9.50;75.60
38514;DHT22;24282;48.400;10.808;2023-03-14T08:16:56;9.50;75.70
38514;DHT22;24282;48.400;10.808;2023-03-14T08:19:22;9.60;75.30
38514;DHT22;24282;48.400;10.808;2023-03-14T08:21:48;9.60;75.00
38514;DHT22;24282;48.400;10.808;2023-03-14T08:24:13;9.70;75.00
38514;DHT22;24282;48.400;10.808;2023-03-14T08:26:39;9.60;75.40
38514;DHT22;24282;48.400;10.808;2023-03-14T08:29:05;9.60;75.60
38514;DHT22;24282;48.400;10.808;2023-03-14T08:31:31;9.70;75.60
38514;DHT22;24282;48.400;10.808;2023-03-14T08:33:59;9.80;75.70
38514;DHT22;24282;48.400;10.808;2023-03-14T08:36:25;9.80;75.60
38514;DHT22;24282;48.400;10.808;2023-03-14T08:38:51;9.90;75.50
38514;DHT22;24282;48.400;10.808;2023-03-14T08:41:16;10.00;75.50
38514;DHT22;24282;48.400;10.808;2023-03-14T08:43:42;10.00;74.90
38514;DHT22;24282;48.400;10.808;2023-03-14T08:46:08;10.10;74.40
38514;DHT22;24282;48.400;10.808;2023-03-14T08:48:34;10.20;74.10
38514;DHT22;24282;48.400;10.808;2023-03-14T08:51:13;10.20;73.40
38514;DHT22;24282;48.400;10.808;2023-03-14T08:53:40;10.30;74.00
38514;DHT22;24282;48.400;10.808;2023-03-14T08:56:06;10.40;73.20
38514;DHT22;24282;48.400;10.808;2023-03-14T08:58:33;10.50;72.60
38514;DHT22;24282;48.400;10.808;2023-03-14T09:00:59;10.50;72.50
38514;DHT22;24282;48.400;10.808;2023-03-14T09:03:25;10.60;72.30
38514;DHT22;24282;48.400;10.808;2023-03-14T09:05:52;10.60;72.80
38514;DHT22;24282;48.400;10.808;2023-03-14T09:08:18;10.70;71.40
38514;DHT22;24282;48.400;10.808;2023-03-14T09:10:43;10.80;71.10
38514;DHT22;24282;48.400;10.808;2023-03-14T09:13:10;10.80;71.00
38514;DHT22;24282;48.400;10.808;2023-03-14T09:15:35;10.80;71.30
38514;DHT22;24282;48.400;10.808;2023-03-14T09:18:01;10.90;71.10
38514;DHT22;24282;48.400;10.808;2023-03-14T09:20:27;10.90;71.30
38514;DHT22;24282;48.400;10.808;2023-03-14T09:22:53;10.90;70.70
38514;DHT22;24282;48.400;10.808;2023-03-14T09:25:18;10.90;70.80
38514;DHT22;24282;48.400;10.808;2023-03-14T09:27:44;11.10;69.80
38514;DHT22;24282;48.400;10.808;2023-03-14T09:30:10;11.20;69.50
38514;DHT22;24282;48.400;10.808;2023-03-14T09:32:36;11.40;69.30
38514;DHT22;24282;48.400;10.808;2023-03-14T09:35:02;11.50;67.90
38514;DHT22;24282;48.400;10.808;2023-03-14T09:37:28;11.60;66.90
38514;DHT22;24282;48.400;10.808;2023-03-14T09:39:54;11.70;66.70
38514;DHT22;24282;48.400;10.808;2023-03-14T09:42:23;11.80;66.90
38514;DHT22;24282;48.400;10.808;2023-03-14T09:44:57;11.80;67.90
38514;DHT22;24282;48.400;10.808;2023-03-14T09:47:25;11.90;66.10
38514;DHT22;24282;48.400;10.808;2023-03-14T09:49:51;12.00;66.20
38514;DHT22;24282;48.400;10.808;2023-03-14T09:57:37;12.20;64.00
38514;DHT22;24282;48.400;10.808;2023-03-14T10:00:16;12.30;64.10
38514;DHT22;24282;48.400;10.808;2023-03-14T10:02:49;12.20;64.40
38514;DHT22;24282;48.400;10.808;2023-03-14T10:05:19;12.30;63.70
38514;DHT22;24282;48.400;10.808;2023-03-14T10:07:46;12.20;64.10
38514;DHT22;24282;48.400;10.808;2023-03-14T10:10:23;12.30;64.20
38514;DHT22;24282;48.400;10.808;2023-03-14T10:15:27;12.30;63.40
38514;DHT22;24282;48.400;10.808;2023-03-14T10:17:53;12.20;63.30
38514;DHT22;24282;48.400;10.808;2023-03-14T10:20:34;12.20;63.40
38514;DHT22;24282;48.400;10.808;2023-03-14T10:30:53;12.30;63.30
38514;DHT22;24282;48.400;10.808;2023-03-14T10:33:34;12.40;62.90
38514;DHT22;24282;48.400;10.808;2023-03-14T10:38:34;12.30;64.90
38514;DHT22;24282;48.400;10.808;2023-03-14T10:41:00;12.30;64.20
38514;DHT22;24282;48.400;10.808;2023-03-14T10:45:56;12.50;63.60
38514;DHT22;24282;48.400;10.808;2023-03-14T10:48:33;12.50;63.80
38514;DHT22;24282;48.400;10.808;2023-03-14T10:51:04;12.60;63.90
38514;DHT22;24282;48.400;10.808;2023-03-14T10:56:16;13.00;61.50
38514;DHT22;24282;48.400;10.808;2023-03-14T10:58:48;13.00;61.90
38514;DHT22;24282;48.400;10.808;2023-03-14T11:04:08;13.00;60.80
38514;DHT22;24282;48.400;10.808;2023-03-14T11:09:23;12.90;61.40
38514;DHT22;24282;48.400;10.808;2023-03-14T11:11:51;12.90;61.00
38514;DHT22;24282;48.400;10.808;2023-03-14T11:14:27;12.90;61.60
38514;DHT22;24282;48.400;10.808;2023-03-14T11:17:18;12.90;60.80
38514;DHT22;24282;48.400;10.808;2023-03-14T11:22:48;13.10;60.80
38514;DHT22;24282;48.400;10.808;2023-03-14T11:25:32;13.20;60.60
38514;DHT22;24282;48.400;10.808;2023-03-14T11:28:18;13.30;60.10
38514;DHT22;24282;48.400;10.808;2023-03-14T11:31:01;13.30;60.00
38514;DHT22;24282;48.400;10.808;2023-03-14T11:33:38;13.20;59.70
38514;DHT22;24282;48.400;10.808;2023-03-14T11:36:08;13.10;60.10
38514;DHT22;24282;48.400;10.808;2023-03-14T11:38:38;13.00;60.70
38514;DHT22;24282;48.400;10.808;2023-03-14T11:41:12;12.90;61.00
38514;DHT22;24282;48.400;10.808;2023-03-14T11:43:40;12.80;60.60
38514;DHT22;24282;48.400;10.808;2023-03-14T11:46:21;12.80;60.80
38514;DHT22;24282;48.400;10.808;2023-03-14T11:51:43;12.80;60.00
38514;DHT22;24282;48.400;10.808;2023-03-14T11:54:22;12.70;60.30
38514;DHT22;24282;48.400;10.808;2023-03-14T11:56:58;12.70;59.70
38514;DHT22;24282;48.400;10.808;2023-03-14T11:59:30;12.60;59.40
38514;DHT22;24282;48.400;10.808;2023-03-14T12:02:12;12.70;59.60
38514;DHT22;24282;48.400;10.808;2023-03-14T12:05:35;12.70;59.40
38514;DHT22;24282;48.400;10.808;2023-03-14T12:07:53;12.70;59.10
38514;DHT22;24282;48.400;10.808;2023-03-14T12:10:21;12.70;59.20
38514;DHT22;24282;48.400;10.808;2023-03-14T12:12:47;12.70;59.90
38514;DHT22;24282;48.400;10.808;2023-03-14T12:15:20;12.70;60.10
38514;DHT22;24282;48.400;10.808;2023-03-14T12:17:46;12.70;59.90
38514;DHT22;24282;48.400;10.808;2023-03-14T12:20:22;12.60;60.00
38514;DHT22;24282;48.400;10.808;2023-03-14T12:23:15;12.60;60.10
38514;DHT22;24282;48.400;10.808;2023-03-14T12:25:41;12.60;60.50
38514;DHT22;24282;48.400;10.808;2023-03-14T12:28:20;12.50;60.70
38514;DHT22;24282;48.400;10.808;2023-03-14T12:30:46;12.50;61.40
38514;DHT22;24282;48.400;10.808;2023-03-14T12:43:41;12.40;65.80
38514;DHT22;24282;48.400;10.808;2023-03-14T12:48:39;12.20;66.20
38514;DHT22;24282;48.400;10.808;2023-03-14T12:56:50;12.20;65.90
38514;DHT22;24282;48.400;10.808;2023-03-14T12:59:50;12.20;65.70
38514;DHT22;24282;48.400;10.808;2023-03-14T13:15:53;11.90;67.10
38514;DHT22;24282;48.400;10.808;2023-03-14T13:18:36;11.80;68.00
38514;DHT22;24282;48.400;10.808;2023-03-14T13:23:37;11.70;68.70
38514;DHT22;24282;48.400;10.808;2023-03-14T13:26:11;11.70;69.60
38514;DHT22;24282;48.400;10.808;2023-03-14T13:28:38;11.50;70.20
38514;DHT22;24282;48.400;10.808;2023-03-14T13:31:04;11.50;70.60
38514;DHT22;24282;48.400;10.808;2023-03-14T13:33:34;11.30;71.70
38514;DHT22;24282;48.400;10.808;2023-03-14T13:36:02;11.10;73.20
38514;DHT22;24282;48.400;10.808;2023-03-14T13:38:31;11.00;73.40
38514;DHT22;24282;48.400;10.808;2023-03-14T13:41:04;10.90;73.90
38514;DHT22;24282;48.400;10.808;2023-03-14T13:43:40;10.70;74.30
38514;DHT22;24282;48.400;10.808;2023-03-14T13:48:45;10.60;74.90
38514;DHT22;24282;48.400;10.808;2023-03-14T13:51:13;10.50;75.00
38514;DHT22;24282;48.400;10.808;2023-03-14T13:53:47;10.40;75.80
38514;DHT22;24282;48.400;10.808;2023-03-14T13:56:14;10.40;76.10
38514;DHT22;24282;48.400;10.808;2023-03-14T13:58:41;10.40;75.60
38514;DHT22;24282;48.400;10.808;2023-03-14T14:01:23;10.40;75.50
38514;DHT22;24282;48.400;10.808;2023-03-14T14:03:51;10.40;75.70
38514;DHT22;24282;48.400;10.808;2023-03-14T14:08:56;10.30;76.00
38514;DHT22;24282;48.400;10.808;2023-03-14T14:11:41;10.20;76.20
38514;DHT22;24282;48.400;10.808;2023-03-14T14:14:18;10.20;76.40
38514;DHT22;24282;48.400;10.808;2023-03-14T14:16:47;10.20;76.40
38514;DHT22;24282;48.400;10.808;2023-03-14T14:19:14;10.00;77.60
38514;DHT22;24282;48.400;10.808;2023-03-14T14:21:40;9.90;78.70
38514;DHT22;24282;48.400;10.808;2023-03-14T14:24:11;9.90;78.90
38514;DHT22;24282;48.400;10.808;2023-03-14T14:26:40;9.70;79.00
38514;DHT22;24282;48.400;10.808;2023-03-14T14:29:06;9.60;79.20
38514;DHT22;24282;48.400;10.808;2023-03-14T14:31:32;9.60;79.90
38514;DHT22;24282;48.400;10.808;2023-03-14T14:34:00;9.50;78.20
38514;DHT22;24282;48.400;10.808;2023-03-14T14:36:31;9.50;78.10
38514;DHT22;24282;48.400;10.808;2023-03-14T14:39:04;9.40;79.10
38514;DHT22;24282;48.400;10.808;2023-03-14T14:41:33;9.40;77.90
38514;DHT22;24282;48.400;10.808;2023-03-14T14:44:00;9.30;78.50
38514;DHT22;24282;48.400;10.808;2023-03-14T14:46:30;9.30;78.90
38514;DHT22;24282;48.400;10.808;2023-03-14T14:49:02;9.40;79.00
38514;DHT22;24282;48.400;10.808;2023-03-14T14:51:34;9.40;79.40
38514;DHT22;24282;48.400;10.808;2023-03-14T14:54:14;9.40;79.70
38514;DHT22;24282;48.400;10.808;2023-03-14T14:56:40;9.40;78.50
38514;DHT22;24282;48.400;10.808;2023-03-14T14:59:17;9.40;78.80
38514;DHT22;24282;48.400;10.808;2023-03-14T15:01:43;9.40;77.60
38514;DHT22;24282;48.400;10.808;2023-03-14T15:04:13;9.40;77.00
38514;DHT22;24282;48.400;10.808;2023-03-14T15:06:43;9.30;76.70
38514;DHT22;24282;48.400;10.808;2023-03-14T15:09:11;9.20;77.10
38514;DHT22;24282;48.400;10.808;2023-03-14T15:11:37;9.20;76.90
38514;DHT22;24282;48.400;10.808;2023-03-14T15:14:03;9.30;76.90
38514;DHT22;24282;48.400;10.808;2023-03-14T15:16:30;9.30;76.40
38514;DHT22;24282;48.400;10.808;2023-03-14T15:19:02;9.40;75.60
38514;DHT22;24282;48.400;10.808;2023-03-14T15:21:31;9.40;72.70
38514;DHT22;24282;48.400;10.808;2023-03-14T15:23:57;9.40;71.40
38514;DHT22;24282;48.400;10.808;2023-03-14T15:26:25;9.30;69.80
38514;DHT22;24282;48.400;10.808;2023-03-14T15:28:51;9.20;68.10
38514;DHT22;24282;48.400;10.808;2023-03-14T15:31:17;9.30;66.90
38514;DHT22;24282;48.400;10.808;2023-03-14T15:33:45;9.40;66.60
38514;DHT22;24282;48.400;10.808;2023-03-14T15:36:32;9.40;65.20
38514;DHT22;24282;48.400;10.808;2023-03-14T15:38:59;9.30;64.10
38514;DHT22;24282;48.400;10.808;2023-03-14T15:41:26;9.30;63.10
38514;DHT22;24282;48.400;10.808;2023-03-14T15:43:52;9.20;62.70
38514;DHT22;24282;48.400;10.808;2023-03-14T15:46:18;9.20;59.50
38514;DHT22;24282;48.400;10.808;2023-03-14T15:48:48;9.20;60.80
38514;DHT22;24282;48.400;10.808;2023-03-14T15:51:14;9.20;59.70
38514;DHT22;24282;48.400;10.808;2023-03-14T15:53:40;9.20;60.20
38514;DHT22;24282;48.400;10.808;2023-03-14T15:56:10;9.20;58.80
38514;DHT22;24282;48.400;10.808;2023-03-14T15:58:36;9.20;59.50
38514;DHT22;24282;48.400;10.808;2023-03-14T16:01:06;9.20;59.80
38514;DHT22;24282;48.400;10.808;2023-03-14T16:03:34;9.20;59.40
38514;DHT22;24282;48.400;10.808;2023-03-14T16:06:00;9.20;59.30
38514;DHT22;24282;48.400;10.808;2023-03-14T16:08:26;9.20;60.30
38514;DHT22;24282;48.400;10.808;2023-03-14T16:10:54;9.20;59.30
38514;DHT22;24282;48.400;10.808;2023-03-14T16:13:20;9.10;60.80
38514;DHT22;24282;48.400;10.808;2023-03-14T16:15:56;9.20;59.90
38514;DHT22;24282;48.400;10.808;2023-03-14T16:18:22;9.20;59.50
38514;DHT22;24282;48.400;10.808;2023-03-14T16:20:59;9.10;59.00
38514;DHT22;24282;48.400;10.808;2023-03-14T16:23:25;9.00;59.10
38514;DHT22;24282;48.400;10.808;2023-03-14T16:25:53;9.00;59.10
38514;DHT22;24282;48.400;10.808;2023-03-14T16:28:19;8.70;59.30
38514;DHT22;24282;48.400;10.808;2023-03-14T16:30:45;8.80;59.10
38514;DHT22;24282;48.400;10.808;2023-03-14T16:33:12;8.70;59.70
38514;DHT22;24282;48.400;10.808;2023-03-14T16:35:39;8.70;59.20
38514;DHT22;24282;48.400;10.808;2023-03-14T16:38:05;8.60;59.10
38514;DHT22;24282;48.400;10.808;2023-03-14T16:40:30;8.70;58.80
38514;DHT22;24282;48.400;10.808;2023-03-14T16:42:56;8.60;59.70
38514;DHT22;24282;48.400;10.808;2023-03-14T16:45:22;8.60;59.10
38514;DHT22;24282;48.400;10.808;2023-03-14T16:47:48;8.60;59.10
38514;DHT22;24282;48.400;10.808;2023-03-14T16:50:14;8.50;60.10
38514;DHT22;24282;48.400;10.808;2023-03-14T16:52:39;8.60;58.50
38514;DHT22;24282;48.400;10.808;2023-03-14T16:55:05;8.50;58.90
38514;DHT22;24282;48.400;10.808;2023-03-14T16:57:32;8.50;58.60
38514;DHT22;24282;48.400;10.808;2023-03-14T16:59:58;8.50;58.00
38514;DHT22;24282;48.400;10.808;2023-03-14T17:02:24;8.50;57.40